Time;durP1;ratioP1;P1;durP2;ratioP2;P2;SDS_P1;SDS_P2;PMS_P1;PMS_P2;Temp;Humidity;BMP_temperature;BMP_pressure;BME280_temperature;BME280_humidity;BME280_pressure;Samples;Min_cycle;Max_cycle;Signal;HPM_P1;HPM_P2
2021/01/03 00:01:54;;;;;;;128.35;67.05;;;;;;;2.53;84.74;100279.88;120615;1149;104380;-83
2021/01/03 00:04:21;;;;;;;135.67;71.13;;;;;;;2.51;84.70;100277.28;120702;1150;103168;-83
2021/01/03 00:06:51;;;;;;;129.40;64.57;;;;;;;2.50;84.96;100275.56;120695;1150;103862;-83
2021/01/03 00:09:19;;;;;;;126.73;65.27;;;;;;;2.50;85.17;100278.14;120712;1151;104487;-83
2021/01/03 00:11:46;;;;;;;122.27;64.47;;;;;;;2.51;84.78;100284.14;120529;1150;104305;-83
2021/01/03 00:14:13;;;;;;;128.70;66.37;;;;;;;2.50;85.00;100264.41;120633;1150;104386;-83
2021/01/03 00:16:45;;;;;;;129.47;68.17;;;;;;;2.49;84.76;100267.84;120639;1150;104400;-82
2021/01/03 00:19:12;;;;;;;129.43;64.70;;;;;;;2.47;84.95;100274.70;120548;1150;104467;-82
2021/01/03 00:21:40;;;;;;;126.63;67.57;;;;;;;2.45;84.97;100271.27;120555;1151;104515;-82
2021/01/03 00:24:07;;;;;;;129.72;65.55;;;;;;;2.43;85.18;100276.42;120578;1151;104529;-83
2021/01/03 00:26:34;;;;;;;131.50;67.57;;;;;;;2.40;84.82;100274.70;120606;1151;103136;-83
2021/01/03 00:29:01;;;;;;;136.17;69.33;;;;;;;2.39;84.91;100278.14;120632;1151;104809;-83
2021/01/03 00:31:28;;;;;;;122.10;64.87;;;;;;;2.38;85.08;100268.70;120567;1150;104358;-83
2021/01/03 00:33:55;;;;;;;142.87;72.27;;;;;;;2.37;85.33;100276.42;120579;1150;105848;-82
2021/01/03 00:36:22;;;;;;;131.53;65.70;;;;;;;2.35;85.16;100276.42;120776;1150;101962;-82
2021/01/03 00:38:49;;;;;;;132.80;67.13;;;;;;;2.34;85.23;100273.86;120561;1150;104433;-83
2021/01/03 00:41:17;;;;;;;133.20;67.43;;;;;;;2.31;85.48;100284.97;120588;1150;103733;-83
2021/01/03 00:43:44;;;;;;;131.82;66.82;;;;;;;2.30;85.65;100298.70;120629;1151;104399;-83
2021/01/03 00:46:11;;;;;;;127.40;65.13;;;;;;;2.28;85.19;100305.56;120556;1151;104389;-83
2021/01/03 00:48:39;;;;;;;133.20;66.70;;;;;;;2.28;85.15;100302.13;120568;1151;104347;-83
2021/01/03 00:51:06;;;;;;;134.43;66.43;;;;;;;2.24;85.23;100308.98;120544;1151;104655;-83
2021/01/03 00:53:33;;;;;;;134.70;68.37;;;;;;;2.20;85.42;100301.27;120550;1149;104242;-82
2021/01/03 00:56:00;;;;;;;133.97;67.73;;;;;;;2.17;85.41;100301.27;120558;1151;104409;-82
2021/01/03 00:58:27;;;;;;;128.20;66.60;;;;;;;2.13;85.33;100296.08;120755;1151;104436;-82
2021/01/03 01:00:54;;;;;;;129.97;66.13;;;;;;;2.08;85.86;100279.78;120518;1151;104531;-82
2021/01/03 01:03:21;;;;;;;127.47;63.50;;;;;;;2.06;85.91;100278.92;120570;1149;104382;-82
2021/01/03 01:05:49;;;;;;;124.57;63.87;;;;;;;2.02;85.70;100282.34;120571;1151;104410;-83
2021/01/03 01:08:16;;;;;;;120.27;62.23;;;;;;;2.01;86.01;100275.48;120619;1151;104872;-83
2021/01/03 01:10:43;;;;;;;119.37;60.03;;;;;;;2.01;86.07;100282.34;120514;1150;104339;-81
2021/01/03 01:13:11;;;;;;;122.57;61.50;;;;;;;2.02;85.98;100281.48;120511;1150;104477;-84
2021/01/03 01:15:38;;;;;;;125.33;63.07;;;;;;;2.03;86.16;100280.64;120532;1151;104526;-83
2021/01/03 01:18:05;;;;;;;124.13;61.97;;;;;;;2.04;86.18;100278.06;120605;1150;104371;-83
2021/01/03 01:20:33;;;;;;;119.87;63.63;;;;;;;2.05;86.09;100282.35;120563;1151;104356;-83
2021/01/03 01:23:02;;;;;;;125.50;62.98;;;;;;;2.04;86.15;100287.50;120627;1151;104433;-83
2021/01/03 01:25:31;;;;;;;116.50;59.83;;;;;;;2.02;86.42;100273.77;120579;1151;104522;-83
2021/01/03 01:28:00;;;;;;;120.67;61.13;;;;;;;2.02;86.02;100281.48;120578;1151;105675;-83
2021/01/03 01:30:29;;;;;;;124.97;63.60;;;;;;;2.02;86.52;100281.48;120662;1150;104354;-82
2021/01/03 01:32:58;;;;;;;118.53;61.70;;;;;;;2.03;86.64;100285.78;120582;1150;104323;-83
2021/01/03 01:35:28;;;;;;;119.20;61.77;;;;;;;2.04;86.23;100274.63;120675;1150;104407;-83
2021/01/03 01:37:55;;;;;;;114.80;61.85;;;;;;;2.06;86.68;100278.06;120551;1150;104385;-83
2021/01/03 01:40:43;;;;;;;115.83;60.87;;;;;;;2.05;86.50;100266.91;120556;1151;104505;-83
2021/01/03 01:43:12;;;;;;;;;;;;;;;2.05;86.59;100271.20;120645;1150;104579;-83
2021/01/03 01:45:42;;;;;;;122.67;61.00;;;;;;;2.04;86.53;100275.49;120510;1151;104477;-82
2021/01/03 01:48:11;;;;;;;116.33;59.17;;;;;;;2.04;86.47;100272.06;120606;1151;104391;-83
2021/01/03 01:50:45;;;;;;;113.37;58.67;;;;;;;2.04;86.57;100278.06;120527;1150;104450;-82
2021/01/03 01:53:26;;;;;;;117.27;59.30;;;;;;;2.05;86.42;100266.91;120515;1150;104217;-83
2021/01/03 01:56:07;;;;;;;111.87;58.97;;;;;;;2.07;86.37;100266.92;120539;1151;104457;-83
2021/01/03 01:58:53;;;;;;;118.57;59.73;;;;;;;2.08;86.21;100271.20;120601;1150;104429;-83
2021/01/03 02:01:26;;;;;;;113.40;58.03;;;;;;;2.09;86.27;100272.92;120570;1150;103224;-83
2021/01/03 02:04:00;;;;;;;111.57;58.40;;;;;;;2.11;86.27;100266.06;120532;1151;103106;-83
2021/01/03 02:06:49;;;;;;;114.90;58.20;;;;;;;2.12;86.17;100270.35;120499;1151;104509;-83
2021/01/03 02:09:24;;;;;;;120.27;58.80;;;;;;;2.14;86.50;100266.06;120619;1150;104343;-83
2021/01/03 02:12:10;;;;;;;116.20;59.97;;;;;;;2.17;86.17;100265.24;120483;1151;104396;-83
2021/01/03 02:14:37;;;;;;;113.63;58.40;;;;;;;2.18;86.43;100261.81;120606;1150;104374;-83
2021/01/03 02:17:06;;;;;;;112.07;58.70;;;;;;;2.17;86.13;100262.67;120524;1151;104500;-82
2021/01/03 02:19:35;;;;;;;113.30;60.33;;;;;;;2.17;86.24;100257.52;120515;1150;104455;-83
2021/01/03 02:22:20;;;;;;;113.27;56.53;;;;;;;2.17;86.50;100254.95;120561;1151;102495;-83
2021/01/03 02:25:10;;;;;;;114.50;57.93;;;;;;;2.17;86.39;100254.95;120560;1151;104375;-83
2021/01/03 02:27:47;;;;;;;122.63;61.53;;;;;;;2.14;86.12;100245.48;120549;1151;104410;-83
2021/01/03 02:30:17;;;;;;;108.80;56.53;;;;;;;2.14;86.60;100250.63;120660;1149;104422;-83
2021/01/03 02:32:50;;;;;;;111.13;58.13;;;;;;;2.13;86.15;100249.77;120613;1151;104534;-83
2021/01/03 02:35:18;;;;;;;107.67;56.80;;;;;;;2.15;86.10;100249.77;120609;1150;104455;-83
2021/01/03 02:37:51;;;;;;;101.57;55.90;;;;;;;2.17;86.49;100254.95;120566;1151;104244;-83
2021/01/03 02:40:24;;;;;;;110.27;57.07;;;;;;;2.17;86.44;100254.95;120590;1151;104339;-83
2021/01/03 02:42:52;;;;;;;102.70;56.30;;;;;;;2.20;86.69;100257.52;120581;1151;103332;-83
2021/01/03 02:45:25;;;;;;;101.10;55.47;;;;;;;2.21;86.46;100256.66;120565;1150;104844;-83
2021/01/03 02:47:56;;;;;;;108.17;56.73;;;;;;;2.23;86.28;100254.95;120653;1150;104484;-83
2021/01/03 02:50:25;;;;;;;111.70;58.40;;;;;;;2.26;86.18;100250.66;120527;1150;104397;-83
2021/01/03 02:52:52;;;;;;;102.87;56.17;;;;;;;2.27;86.14;100248.94;120549;1150;104313;-82
2021/01/03 02:55:20;;;;;;;104.73;55.40;;;;;;;2.28;86.37;100245.52;120569;1151;104432;-83
2021/01/03 02:57:48;;;;;;;104.50;56.13;;;;;;;2.29;86.27;100236.94;120500;1151;104454;-83
2021/01/03 03:00:28;;;;;;;103.37;54.60;;;;;;;2.29;86.04;100235.22;120566;1151;104310;-82
2021/01/03 03:02:55;;;;;;;105.30;57.17;;;;;;;2.29;85.81;100235.22;120575;1151;104445;-83
2021/01/03 03:05:24;;;;;;;102.97;54.63;;;;;;;2.30;85.80;100236.94;120598;1151;105389;-83
2021/01/03 03:07:52;;;;;;;99.63;52.83;;;;;;;2.29;85.74;100222.35;120544;1150;103711;-83
2021/01/03 03:10:20;;;;;;;98.40;52.53;;;;;;;2.28;85.67;100223.21;120490;1150;104495;-83
2021/01/03 03:12:53;;;;;;;102.30;53.73;;;;;;;2.29;86.32;100218.92;120649;1151;104316;-83
2021/01/03 03:15:23;;;;;;;98.23;53.00;;;;;;;2.28;85.98;100222.35;120531;1151;104375;-83
2021/01/03 03:17:50;;;;;;;100.93;54.93;;;;;;;2.28;86.10;100209.48;120546;1150;104445;-83
2021/01/03 03:20:20;;;;;;;96.43;54.23;;;;;;;2.29;86.25;100216.34;120613;1150;104316;-83
2021/01/03 03:22:47;;;;;;;99.97;52.37;;;;;;;2.29;86.20;100213.77;120464;1150;104439;-83
2021/01/03 03:25:16;;;;;;;100.77;53.67;;;;;;;2.29;85.69;100203.48;120558;1151;104315;-83
2021/01/03 03:27:43;;;;;;;101.67;52.33;;;;;;;2.29;85.71;100195.76;120633;1150;101914;-83
2021/01/03 03:30:14;;;;;;;96.83;52.83;;;;;;;2.28;86.13;100197.48;120568;1150;104333;-83
2021/01/03 03:32:41;;;;;;;95.30;51.20;;;;;;;2.27;86.03;100200.91;120528;1151;103650;-83
2021/01/03 03:35:10;;;;;;;93.77;50.33;;;;;;;2.26;85.67;100199.20;120610;1151;104471;-82
2021/01/03 03:37:39;;;;;;;92.67;51.87;;;;;;;2.22;85.87;100202.63;120695;1150;104806;-83
2021/01/03 03:40:07;;;;;;;95.00;52.83;;;;;;;2.20;85.82;100204.34;120609;1150;104426;-83
2021/01/03 03:42:34;;;;;;;98.30;50.50;;;;;;;2.18;85.83;100202.63;120537;1151;104373;-83
2021/01/03 03:45:02;;;;;;;96.07;53.07;;;;;;;2.16;86.20;100199.20;120532;1150;104480;-82
2021/01/03 03:47:29;;;;;;;92.03;51.53;;;;;;;2.15;85.79;100198.31;120498;1150;104869;-83
2021/01/03 03:49:56;;;;;;;92.40;50.83;;;;;;;2.12;86.20;100201.75;120557;1151;103220;-83
2021/01/03 03:52:23;;;;;;;101.07;52.88;;;;;;;2.10;85.82;100188.02;120530;1151;104396;-82
2021/01/03 03:54:50;;;;;;;94.13;52.20;;;;;;;2.09;85.77;100190.59;120542;1151;104532;-83
2021/01/03 03:57:18;;;;;;;99.37;52.30;;;;;;;2.07;86.02;100187.17;120565;1150;104642;-83
2021/01/03 03:59:45;;;;;;;97.27;52.70;;;;;;;2.05;86.15;100189.74;120507;1150;104294;-83
2021/01/03 04:02:13;;;;;;;101.80;55.40;;;;;;;2.03;86.41;100188.89;120603;1150;104511;-83
2021/01/03 04:04:40;;;;;;;105.67;54.20;;;;;;;2.01;86.09;100182.88;120574;1150;104377;-83
2021/01/03 04:07:07;;;;;;;98.83;53.10;;;;;;;1.97;86.35;100181.14;120636;1151;104378;-83
2021/01/03 04:09:34;;;;;;;93.97;53.27;;;;;;;1.94;86.39;100185.42;120535;1151;102337;-83
2021/01/03 04:12:01;;;;;;;96.60;50.60;;;;;;;1.89;86.14;100177.71;120605;1150;104490;-83
2021/01/03 04:14:28;;;;;;;93.90;51.30;;;;;;;1.87;86.52;100184.56;120535;1150;104497;-83
2021/01/03 04:16:57;;;;;;;94.10;52.17;;;;;;;1.83;86.17;100182.85;120560;1151;103090;-83
2021/01/03 04:19:27;;;;;;;95.70;51.67;;;;;;;1.77;86.13;100186.25;120634;1150;104445;-83
2021/01/03 04:22:05;;;;;;;98.20;52.30;;;;;;;1.75;86.39;100185.39;120563;1151;104374;-83
2021/01/03 04:24:34;;;;;;;96.00;51.17;;;;;;;1.72;86.61;100174.24;120527;1151;104405;-82
2021/01/03 04:27:05;;;;;;;96.33;50.63;;;;;;;1.71;86.18;100175.95;120571;1150;103072;-83
2021/01/03 04:29:32;;;;;;;93.13;51.10;;;;;;;1.70;86.83;100171.67;120627;1151;104415;-83
2021/01/03 04:32:09;;;;;;;94.80;50.90;;;;;;;1.71;86.81;100172.52;120561;1151;104452;-83
2021/01/03 04:34:42;;;;;;;92.33;49.53;;;;;;;1.69;86.44;100172.52;120558;1150;104342;-83
2021/01/03 04:37:11;;;;;;;91.63;48.73;;;;;;;1.70;86.69;100165.67;120659;1150;104343;-83
2021/01/03 04:39:38;;;;;;;83.93;46.20;;;;;;;1.70;86.84;100161.39;120574;1151;104468;-82
2021/01/03 04:42:15;;;;;;;81.47;46.63;;;;;;;1.72;86.48;100163.95;120582;1150;104804;-82
2021/01/03 04:44:44;;;;;;;;;;;;;;;1.73;86.76;100170.81;120725;1151;104304;-82
2021/01/03 04:47:39;;;;;;;85.07;48.03;;;;;;;1.73;86.80;100171.67;120562;1151;104476;-83
2021/01/03 04:50:23;;;;;;;76.30;43.25;;;;;;;1.73;86.41;100161.39;120612;1150;104314;-83
2021/01/03 04:53:11;;;;;;;79.67;45.70;;;;;;;1.73;87.02;100181.95;120577;1151;104320;-83
2021/01/03 04:55:50;;;;;;;81.93;45.23;;;;;;;1.75;86.58;100174.24;120523;1151;104346;-83
2021/01/03 04:58:27;;;;;;;78.30;43.30;;;;;;;1.77;87.25;100167.39;120644;1150;103128;-83
2021/01/03 05:01:16;;;;;;;82.70;45.87;;;;;;;1.78;86.86;100179.39;120524;1151;102560;-83
2021/01/03 05:03:52;;;;;;;86.70;47.37;;;;;;;1.78;86.91;100189.67;120685;1150;104431;-83
2021/01/03 05:06:24;;;;;;;84.28;48.50;;;;;;;1.76;86.45;100188.81;120687;1150;104393;-83
2021/01/03 05:08:56;;;;;;;81.30;45.70;;;;;;;1.76;86.72;100186.24;120547;1151;104347;-83
2021/01/03 05:11:37;;;;;;;90.20;47.83;;;;;;;1.75;86.66;100181.95;120636;1150;104343;-83
2021/01/03 05:14:33;;;;;;;84.00;45.25;;;;;;;1.72;86.52;100169.95;120554;1151;103950;-83
2021/01/03 05:17:01;;;;;;;83.47;45.53;;;;;;;1.73;86.80;100186.24;120538;1150;104789;-83
2021/01/03 05:19:29;;;;;;;85.20;47.43;;;;;;;1.73;86.78;100187.09;120585;1151;104366;-83
2021/01/03 05:21:57;;;;;;;84.47;47.80;;;;;;;1.73;86.88;100187.09;120621;1150;104346;-83
2021/01/03 05:24:27;;;;;;;83.80;47.63;;;;;;;1.73;86.99;100181.09;120605;1151;104428;-82
2021/01/03 05:26:55;;;;;;;85.97;47.90;;;;;;;1.74;86.96;100191.39;120574;1150;104491;-83
2021/01/03 05:29:28;;;;;;;88.13;49.63;;;;;;;1.74;86.93;100183.67;120679;1150;104413;-83
2021/01/03 05:31:58;;;;;;;89.10;49.37;;;;;;;1.73;87.04;100187.09;120598;1151;104196;-83
2021/01/03 05:34:56;;;;;;;85.97;49.07;;;;;;;1.71;86.73;100193.95;120542;1150;104394;-83
2021/01/03 05:37:29;;;;;;;84.87;48.13;;;;;;;1.69;86.44;100198.23;120653;1150;105548;-83
2021/01/03 05:39:56;;;;;;;83.57;46.97;;;;;;;1.67;87.02;100197.38;120558;1151;104487;-83
2021/01/03 05:42:34;;;;;;;80.77;45.80;;;;;;;1.65;86.99;100193.95;120611;1150;104386;-83
2021/01/03 05:45:09;;;;;;;80.37;46.10;;;;;;;1.63;86.99;100182.80;120605;1151;104348;-83
2021/01/03 05:47:40;;;;;;;83.50;47.23;;;;;;;1.63;87.05;100193.09;120645;1150;104449;-83
2021/01/03 05:50:30;;;;;;;80.20;46.43;;;;;;;1.59;86.77;100193.91;120670;1148;103051;-83
2021/01/03 05:53:16;;;;;;;78.73;46.40;;;;;;;1.56;86.59;100188.76;120637;1150;104326;-83
2021/01/03 05:56:02;;;;;;;77.00;43.73;;;;;;;1.53;87.00;100193.89;120548;1150;104229;-83
2021/01/03 05:58:40;;;;;;;78.13;45.03;;;;;;;1.51;86.92;100190.46;120612;1150;104351;-83
2021/01/03 06:01:18;;;;;;;79.67;44.77;;;;;;;1.51;87.29;100193.89;120632;1149;104452;-83
2021/01/03 06:04:10;;;;;;;78.60;45.03;;;;;;;1.51;87.19;100186.18;120606;1150;104525;-83
2021/01/03 06:06:47;;;;;;;81.87;44.33;;;;;;;1.52;87.08;100187.04;120656;1150;104396;-83
2021/01/03 06:09:18;;;;;;;82.43;45.73;;;;;;;1.51;87.13;100186.18;120571;1151;103140;-83
2021/01/03 06:12:07;;;;;;;84.17;46.23;;;;;;;1.52;87.41;100181.90;120535;1150;104439;-83
2021/01/03 06:14:36;;;;;;;79.67;44.67;;;;;;;1.51;87.31;100172.47;120667;1150;104426;-83
2021/01/03 06:17:12;;;;;;;81.70;45.93;;;;;;;1.50;87.06;100179.33;120532;1151;104314;-83
2021/01/03 06:19:59;;;;;;;82.57;46.98;;;;;;;1.50;87.22;100183.61;120627;1151;104423;-83
2021/01/03 06:22:32;;;;;;;85.47;47.30;;;;;;;1.47;87.36;100189.59;120599;1149;104183;-83
2021/01/03 06:25:02;;;;;;;85.80;47.25;;;;;;;1.46;87.14;100190.45;120635;1150;104442;-82
2021/01/03 06:27:34;;;;;;;82.73;46.50;;;;;;;1.44;87.26;100186.16;120589;1150;104430;-83
2021/01/03 06:30:08;;;;;;;85.50;47.23;;;;;;;1.42;87.15;100190.41;120535;1151;104415;-83
2021/01/03 06:32:54;;;;;;;81.53;46.73;;;;;;;1.40;87.41;100197.26;120567;1150;104595;-83
2021/01/03 06:35:30;;;;;;;80.47;46.73;;;;;;;1.38;87.58;100204.97;120672;1150;104427;-83
2021/01/03 06:38:13;;;;;;;87.03;48.83;;;;;;;1.37;87.43;100204.97;120528;1150;104511;-83
2021/01/03 06:40:50;;;;;;;83.30;46.77;;;;;;;1.35;87.23;100198.96;120642;1150;104468;-83
2021/01/03 06:43:23;;;;;;;84.03;46.40;;;;;;;1.32;87.47;100192.10;120679;1150;104442;-83
2021/01/03 06:45:59;;;;;;;80.33;46.47;;;;;;;1.31;87.26;100182.68;120623;1151;104323;-84
2021/01/03 06:49:04;;;;;;;82.00;46.90;;;;;;;1.32;87.64;100181.83;120714;1150;103004;-83
2021/01/03 06:52:01;;;;;;;79.90;44.57;;;;;;;1.35;87.53;100180.98;120496;1151;104440;-83
2021/01/03 06:54:34;;;;;;;77.97;45.15;;;;;;;1.36;87.47;100185.26;120495;1154;104393;-83
2021/01/03 06:57:41;;;;;;;79.63;47.07;;;;;;;1.38;87.75;100180.98;120497;1153;102369;-83
2021/01/03 07:00:23;;;;;;;78.07;45.80;;;;;;;1.40;87.18;100179.27;120498;1153;104339;-83
2021/01/03 07:03:18;;;;;;;78.97;45.23;;;;;;;1.40;87.33;100179.27;120524;1154;104342;-84
2021/01/03 07:05:50;;;;;;;76.15;44.05;;;;;;;1.41;87.46;100175.84;120472;1153;104399;-83
2021/01/03 07:08:20;;;;;;;69.37;42.30;;;;;;;1.43;87.33;100177.56;120013;1153;104377;-82
2021/01/03 07:10:47;;;;;;;70.73;43.63;;;;;;;1.45;87.44;100175.03;119924;1154;104482;-83
2021/01/03 07:13:30;;;;;;;71.67;41.50;;;;;;;1.47;87.54;100183.60;120437;1154;105102;-82
2021/01/03 07:15:59;;;;;;;71.37;42.20;;;;;;;1.48;87.18;100185.31;120570;1153;104239;-82
2021/01/03 07:18:27;;;;;;;67.67;40.77;;;;;;;1.50;87.17;100191.31;120460;1154;104356;-83
2021/01/03 07:20:59;;;;;;;65.40;39.80;;;;;;;1.51;87.47;100193.03;119997;1153;104351;-83
2021/01/03 07:23:38;;;;;;;69.13;40.20;;;;;;;1.51;87.25;100201.60;120031;1154;104374;-83
2021/01/03 07:26:26;;;;;;;71.27;43.13;;;;;;;1.56;87.02;100211.89;120509;1153;104670;-83
2021/01/03 07:29:07;;;;;;;;;;;;;;;1.61;87.16;100214.47;120502;1154;104189;-83
2021/01/03 07:32:02;;;;;;;76.90;44.40;;;;;;;1.62;87.28;100214.50;120496;1150;104333;-83
2021/01/03 07:34:33;;;;;;;75.17;43.83;;;;;;;1.63;87.13;100212.80;120513;1151;104368;-83
2021/01/03 07:37:10;;;;;;;69.53;43.00;;;;;;;1.63;87.08;100216.22;120512;1151;104410;-84
2021/01/03 07:40:07;;;;;;;69.60;42.20;;;;;;;1.63;87.16;100211.08;120555;1150;104425;-84
2021/01/03 07:43:01;;;;;;;79.10;42.57;;;;;;;1.62;87.25;100217.08;120527;1150;103257;-84
2021/01/03 07:45:34;;;;;;;70.30;43.17;;;;;;;1.61;87.12;100227.32;120570;1151;104358;-84
2021/01/03 07:48:02;;;;;;;70.35;41.95;;;;;;;1.61;87.04;100215.33;120677;1150;104536;-84
2021/01/03 07:50:38;;;;;;;68.87;42.40;;;;;;;1.60;86.96;100213.61;120503;1149;104340;-84
2021/01/03 07:53:25;;;;;;;;;;;;;;;1.60;86.75;100215.33;120606;1150;104426;-84
2021/01/03 07:55:53;;;;;;;66.73;40.77;;;;;;;1.60;86.97;100205.91;120643;1150;103308;-84
2021/01/03 07:58:24;;;;;;;68.43;40.67;;;;;;;1.61;87.10;100207.62;120542;1151;104354;-84
2021/01/03 08:01:00;;;;;;;64.00;38.87;;;;;;;1.61;87.22;100202.48;120664;1151;104335;-84
2021/01/03 08:03:31;;;;;;;61.83;38.87;;;;;;;1.63;87.06;100200.80;120525;1150;104349;-83
2021/01/03 08:06:09;;;;;;;65.90;40.53;;;;;;;1.64;86.87;100197.38;120498;1151;105314;-83
2021/01/03 08:08:37;;;;;;;62.27;39.13;;;;;;;1.67;87.02;100188.80;120600;1151;104215;-83
2021/01/03 08:11:14;;;;;;;64.37;39.97;;;;;;;1.70;86.88;100191.38;120655;1151;104458;-83
2021/01/03 08:13:45;;;;;;;62.78;38.70;;;;;;;1.73;86.94;100192.23;120556;1150;104494;-84
2021/01/03 08:16:21;;;;;;;60.23;38.40;;;;;;;1.76;86.86;100192.24;120514;1151;104319;-83
2021/01/03 08:19:07;;;;;;;60.97;38.27;;;;;;;1.79;86.85;100181.96;120614;1150;104518;-83
2021/01/03 08:21:41;;;;;;;63.20;39.47;;;;;;;1.81;86.52;100189.70;120618;1151;104374;-83
2021/01/03 08:24:18;;;;;;;61.00;38.10;;;;;;;1.84;86.62;100184.56;120581;1150;104398;-83
2021/01/03 08:26:58;;;;;;;57.20;37.63;;;;;;;1.87;86.61;100199.14;120559;1152;104420;-82
2021/01/03 08:29:41;;;;;;;64.97;39.30;;;;;;;1.89;86.38;100192.28;120505;1150;103022;-83
2021/01/03 08:32:14;;;;;;;60.97;39.03;;;;;;;1.89;86.44;100192.28;120608;1151;104472;-83
2021/01/03 08:34:43;;;;;;;65.17;39.70;;;;;;;1.90;86.30;100183.70;120538;1151;104346;-84
2021/01/03 08:37:18;;;;;;;60.97;39.80;;;;;;;1.90;86.08;100194.86;120502;1150;103767;-83
2021/01/03 08:39:47;;;;;;;66.67;41.20;;;;;;;1.90;86.25;100188.85;120530;1151;104391;-83
2021/01/03 08:42:36;;;;;;;67.73;40.10;;;;;;;1.89;86.47;100208.57;120492;1151;103030;-84
2021/01/03 08:45:07;;;;;;;64.33;41.83;;;;;;;1.90;85.98;100206.86;120498;1149;104398;-84
2021/01/03 08:47:39;;;;;;;69.60;41.77;;;;;;;1.90;86.32;100214.57;120544;1150;104314;-84
2021/01/03 08:50:17;;;;;;;62.60;40.45;;;;;;;1.90;86.10;100210.28;120593;1150;104487;-83
2021/01/03 08:53:07;;;;;;;68.27;42.60;;;;;;;1.93;86.06;100219.72;120593;1150;104471;-83
2021/01/03 08:55:39;;;;;;;68.85;41.85;;;;;;;1.93;86.03;100225.72;120609;1151;104502;-83
2021/01/03 08:58:15;;;;;;;62.67;39.70;;;;;;;1.97;86.05;100211.14;120519;1151;104761;-83
2021/01/03 09:00:48;;;;;;;63.90;40.70;;;;;;;2.00;86.22;100206.03;120555;1151;104197;-83
2021/01/03 09:03:19;;;;;;;64.33;39.97;;;;;;;2.01;86.11;100200.89;120487;1150;104439;-84
2021/01/03 09:05:48;;;;;;;61.33;39.53;;;;;;;2.05;85.67;100201.75;120538;1151;104384;-84
2021/01/03 09:08:32;;;;;;;59.40;38.40;;;;;;;2.06;86.25;100201.75;120618;1151;104380;-84
2021/01/03 09:11:08;;;;;;;61.03;38.57;;;;;;;2.07;85.91;100202.61;120484;1151;104505;-84
2021/01/03 09:13:46;;;;;;;64.70;39.90;;;;;;;2.07;85.76;100193.17;120547;1150;104430;-84
2021/01/03 09:16:40;;;;;;;60.53;39.50;;;;;;;2.08;86.22;100182.02;120547;1152;104403;-84
2021/01/03 09:19:22;;;;;;;61.33;38.87;;;;;;;2.11;85.78;100191.45;120634;1150;104329;-84
2021/01/03 09:21:54;;;;;;;65.83;41.03;;;;;;;2.16;85.75;100191.48;120571;1150;104344;-86
2021/01/03 09:24:31;;;;;;;62.10;40.67;;;;;;;2.19;85.80;100194.91;120495;1150;104208;-84
2021/01/03 09:27:00;;;;;;;61.60;39.33;;;;;;;2.23;85.66;100190.62;120543;1151;104492;-84
2021/01/03 09:29:40;;;;;;;65.50;42.00;;;;;;;2.24;85.25;100185.47;120573;1151;104435;-84
2021/01/03 09:32:22;;;;;;;61.77;40.70;;;;;;;2.27;85.42;100188.05;120581;1151;104430;-84
2021/01/03 09:35:33;;;;;;;63.07;40.10;;;;;;;2.30;85.30;100176.89;120559;1150;104306;-84
2021/01/03 09:38:15;;;;;;;63.90;40.80;;;;;;;2.31;85.64;100166.59;120520;1151;104300;-82
2021/01/03 09:41:00;;;;;;;63.80;40.07;;;;;;;2.35;85.37;100162.33;120664;1150;104279;-83
2021/01/03 09:43:49;;;;;;;65.47;40.83;;;;;;;2.38;85.37;100162.32;120568;1151;104352;-82
2021/01/03 09:46:31;;;;;;;62.17;39.47;;;;;;;2.39;85.64;100157.17;120542;1151;104499;-82
2021/01/03 09:49:37;;;;;;;61.90;39.87;;;;;;;2.42;85.38;100164.03;120528;1151;104508;-82
2021/01/03 09:52:23;;;;;;;61.40;39.77;;;;;;;2.43;84.93;100173.46;120619;1153;104495;-82
2021/01/03 09:55:02;;;;;;;60.63;40.30;;;;;;;2.43;84.96;100160.59;120575;1154;104377;-82
2021/01/03 09:57:38;;;;;;;59.83;38.30;;;;;;;2.46;84.91;100163.16;120507;1153;104325;-83
2021/01/03 10:00:10;;;;;;;62.20;38.65;;;;;;;2.49;85.46;100164.88;120578;1153;104304;-82
2021/01/03 10:02:38;;;;;;;60.90;37.80;;;;;;;2.53;85.31;100161.45;120131;1154;104357;-82
2021/01/03 10:05:25;;;;;;;61.43;38.30;;;;;;;2.58;84.76;100164.88;120569;1153;104380;-84
2021/01/03 10:08:03;;;;;;;58.70;37.33;;;;;;;2.61;84.87;100164.87;120411;1154;104473;-83
2021/01/03 10:10:55;;;;;;;54.97;37.10;;;;;;;2.65;85.05;100153.70;120563;1153;104198;-84
2021/01/03 10:13:25;;;;;;;58.00;37.70;;;;;;;2.66;85.29;100143.39;120369;1154;104430;-84
2021/01/03 10:15:53;;;;;;;53.60;36.87;;;;;;;2.67;85.12;100142.53;119882;1154;104364;-84
2021/01/03 10:18:28;;;;;;;57.57;36.37;;;;;;;2.69;84.93;100140.84;120366;1153;104819;-84
2021/01/03 10:20:56;;;;;;;56.80;36.53;;;;;;;2.73;84.70;100134.81;120377;1154;104484;-84
2021/01/03 10:23:37;;;;;;;55.37;35.07;;;;;;;2.77;84.40;100135.66;120527;1154;104975;-85
2021/01/03 10:26:35;;;;;;;56.47;35.87;;;;;;;2.78;84.15;100137.38;120537;1153;104334;-82
2021/01/03 10:29:04;;;;;;;53.83;36.53;;;;;;;2.80;84.67;100138.22;120329;1151;104428;-84
2021/01/03 10:31:45;;;;;;;56.30;35.90;;;;;;;2.82;84.19;100138.21;120576;1151;104405;-83
2021/01/03 10:34:15;;;;;;;59.25;35.95;;;;;;;2.84;84.57;100137.34;120632;1150;104308;-83
2021/01/03 10:36:43;;;;;;;54.63;35.90;;;;;;;2.88;83.75;100144.23;120514;1150;104223;-84
2021/01/03 10:39:13;;;;;;;56.30;35.93;;;;;;;2.89;83.52;100148.52;120579;1151;103008;-83
2021/01/03 10:41:46;;;;;;;55.47;36.37;;;;;;;2.91;84.16;100140.78;120575;1151;104409;-84
2021/01/03 10:44:14;;;;;;;55.60;34.40;;;;;;;2.94;84.09;100151.08;120569;1151;104426;-84
2021/01/03 10:46:42;;;;;;;52.70;35.10;;;;;;;2.98;83.97;100147.62;120576;1151;104739;-84
2021/01/03 10:49:10;;;;;;;53.97;35.20;;;;;;;3.01;83.57;100151.03;120552;1151;104465;-84
2021/01/03 10:51:42;;;;;;;54.17;34.97;;;;;;;3.04;84.19;100137.28;120626;1151;104460;-84
2021/01/03 10:54:17;;;;;;;53.50;34.60;;;;;;;3.04;83.42;100135.56;120715;1150;103686;-84
2021/01/03 10:57:04;;;;;;;48.47;33.93;;;;;;;3.09;83.42;100132.99;120555;1151;106140;-84
2021/01/03 10:59:32;;;;;;;50.57;33.30;;;;;;;3.11;83.30;100132.98;120740;1150;102844;-83
2021/01/03 11:01:59;;;;;;;51.43;34.10;;;;;;;3.15;84.09;100130.38;120633;1151;104452;-83
2021/01/03 11:04:26;;;;;;;50.87;34.37;;;;;;;3.21;83.69;100132.92;120592;1151;104805;-84
2021/01/03 11:06:55;;;;;;;52.03;34.47;;;;;;;3.24;83.11;100124.35;120588;1150;104474;-84
2021/01/03 11:09:24;;;;;;;54.10;34.17;;;;;;;3.26;83.54;100126.05;120518;1151;104449;-84
2021/01/03 11:11:58;;;;;;;53.83;34.63;;;;;;;3.28;83.55;100123.47;120554;1150;104345;-84
2021/01/03 11:14:26;;;;;;;49.07;33.93;;;;;;;3.30;83.18;100104.55;120514;1149;104380;-84
2021/01/03 11:16:54;;;;;;;49.33;33.07;;;;;;;3.33;83.28;100109.68;120557;1150;104819;-84
2021/01/03 11:19:21;;;;;;;54.80;34.57;;;;;;;3.36;82.61;100115.68;120551;1151;104340;-84
2021/01/03 11:21:55;;;;;;;51.93;34.70;;;;;;;3.34;82.99;100110.53;120572;1150;104585;-84
2021/01/03 11:24:23;;;;;;;49.73;33.80;;;;;;;3.31;82.94;100121.72;120553;1151;104381;-84
2021/01/03 11:26:52;;;;;;;53.20;34.77;;;;;;;3.33;82.83;100121.72;120538;1151;103156;-84
2021/01/03 11:29:25;;;;;;;54.77;34.37;;;;;;;3.32;83.19;100120.00;120582;1151;104428;-84
2021/01/03 11:31:57;;;;;;;52.47;34.50;;;;;;;3.28;83.08;100124.32;120560;1151;104428;-84